createdAt,value
2018-08-30T00:00:27.084Z,99.99
2018-08-30T00:02:20.431Z,99.99
2018-08-30T00:03:20.361Z,99.99
2018-08-30T00:05:13.679Z,99.99
2018-08-30T00:06:13.644Z,99.99
2018-08-30T00:08:06.954Z,99.99
2018-08-30T00:09:06.924Z,99.99
2018-08-30T00:11:00.220Z,99.99
2018-08-30T00:12:00.191Z,99.99
2018-08-30T00:13:53.515Z,99.99
2018-08-30T00:14:53.461Z,99.99
2018-08-30T00:16:46.786Z,99.99
2018-08-30T00:17:46.730Z,99.99
2018-08-30T00:19:40.045Z,99.99
2018-08-30T00:20:40.010Z,99.99
2018-08-30T00:22:33.346Z,99.99
2018-08-30T00:23:33.295Z,99.99
2018-08-30T00:25:26.610Z,99.99
2018-08-30T00:26:26.567Z,99.99
2018-08-30T00:28:19.890Z,99.99
2018-08-30T00:29:19.843Z,99.99
2018-08-30T00:31:13.156Z,99.99
2018-08-30T00:32:13.102Z,99.99
2018-08-30T00:34:06.410Z,99.99
2018-08-30T00:35:06.376Z,99.99
2018-08-30T00:36:59.686Z,99.99
2018-08-30T00:37:59.660Z,99.99
2018-08-30T00:39:52.950Z,99.99
2018-08-30T00:40:52.923Z,99.99
2018-08-30T00:42:46.246Z,99.99
2018-08-30T00:43:46.187Z,99.99
2018-08-30T00:45:39.531Z,99.99
2018-08-30T00:46:39.458Z,99.99
2018-08-30T00:48:32.785Z,99.99
2018-08-30T00:49:32.745Z,99.99
2018-08-30T00:51:26.053Z,99.99
2018-08-30T00:52:26.025Z,99.99
2018-08-30T00:54:19.338Z,99.99
2018-08-30T00:55:19.307Z,99.99
2018-08-30T00:57:12.619Z,99.99
2018-08-30T00:58:12.572Z,99.99
2018-08-30T01:00:05.871Z,99.99
2018-08-30T01:01:05.842Z,99.99
2018-08-30T01:02:59.163Z,99.99
2018-08-30T01:03:59.112Z,99.99
2018-08-30T01:05:52.427Z,99.99
2018-08-30T01:06:52.396Z,99.99
2018-08-30T01:08:45.706Z,99.99
2018-08-30T01:09:45.663Z,99.99
2018-08-30T01:11:38.981Z,99.99
2018-08-30T01:12:38.939Z,99.99
2018-08-30T01:14:32.258Z,99.99
2018-08-30T01:15:32.203Z,99.99
2018-08-30T01:17:25.508Z,99.99
2018-08-30T01:18:25.483Z,99.99
2018-08-30T01:20:18.828Z,99.99
2018-08-30T01:21:18.748Z,99.99
2018-08-30T01:23:12.065Z,99.99
2018-08-30T01:24:12.020Z,99.99
2018-08-30T01:26:05.333Z,99.99
2018-08-30T01:27:05.284Z,99.99
2018-08-30T01:28:58.632Z,99.99
2018-08-30T01:29:58.578Z,99.99
2018-08-30T01:31:51.892Z,99.99
2018-08-30T01:32:51.854Z,99.99
2018-08-30T01:34:45.184Z,99.99
2018-08-30T01:35:45.148Z,99.99
2018-08-30T01:37:38.439Z,99.99
2018-08-30T01:38:38.407Z,99.99
2018-08-30T01:40:31.733Z,99.99
2018-08-30T01:41:31.684Z,99.99
2018-08-30T01:43:24.988Z,99.99
2018-08-30T01:44:24.949Z,99.99
2018-08-30T01:46:18.287Z,99.99
2018-08-30T01:47:18.248Z,99.99
2018-08-30T01:49:11.575Z,99.99
2018-08-30T01:50:11.518Z,99.99
2018-08-30T01:52:04.825Z,99.99
2018-08-30T01:53:04.788Z,99.99
2018-08-30T01:54:58.144Z,99.99
2018-08-30T01:55:58.108Z,99.99
2018-08-30T01:57:51.410Z,99.99
2018-08-30T01:58:51.380Z,99.99
2018-08-30T02:00:44.695Z,99.99
2018-08-30T02:01:44.655Z,99.99
2018-08-30T02:03:37.969Z,99.99
2018-08-30T02:04:37.925Z,99.99
2018-08-30T02:06:31.254Z,99.99
2018-08-30T02:07:31.205Z,99.99
2018-08-30T02:09:24.519Z,99.99
2018-08-30T02:10:24.480Z,99.99
2018-08-30T02:12:17.856Z,99.99
2018-08-30T02:13:17.818Z,99.99
2018-08-30T02:15:11.126Z,99.99
2018-08-30T02:16:11.086Z,99.99
2018-08-30T02:18:04.414Z,99.99
2018-08-30T02:19:04.359Z,99.99
2018-08-30T02:20:57.676Z,99.99
2018-08-30T02:21:57.635Z,99.99
2018-08-30T02:23:50.967Z,99.99
2018-08-30T02:24:50.905Z,99.99
2018-08-30T02:26:44.239Z,99.99
2018-08-30T02:27:44.184Z,99.99
2018-08-30T02:29:37.524Z,99.99
2018-08-30T02:30:37.472Z,99.99
2018-08-30T02:32:30.774Z,99.99
2018-08-30T02:33:30.741Z,99.99
2018-08-30T02:35:24.076Z,99.99
2018-08-30T02:36:24.031Z,99.99
2018-08-30T02:38:17.340Z,99.99
2018-08-30T02:39:17.291Z,99.99
2018-08-30T02:41:10.612Z,99.99
2018-08-30T02:42:10.591Z,99.99
2018-08-30T02:44:03.887Z,99.99
2018-08-30T02:45:03.844Z,99.99
2018-08-30T02:46:57.156Z,99.99
2018-08-30T02:47:57.101Z,99.99
2018-08-30T02:49:50.416Z,99.99
2018-08-30T02:50:50.380Z,99.99
2018-08-30T02:52:43.702Z,99.99
2018-08-30T02:53:43.660Z,99.99
2018-08-30T02:55:36.946Z,99.99
2018-08-30T02:56:36.933Z,99.99
2018-08-30T02:58:30.256Z,99.99
2018-08-30T02:59:30.206Z,99.99
2018-08-30T03:01:23.509Z,99.99
2018-08-30T03:02:23.473Z,99.99
2018-08-30T03:04:16.826Z,99.99
2018-08-30T03:05:16.742Z,99.99
2018-08-30T03:07:10.062Z,99.99
2018-08-30T03:08:10.008Z,99.99
2018-08-30T03:10:04.322Z,99.99
2018-08-30T03:11:04.287Z,99.99
2018-08-30T03:12:58.617Z,99.99
2018-08-30T03:13:58.569Z,99.99
2018-08-30T03:15:51.895Z,99.99
2018-08-30T03:16:51.835Z,99.99
2018-08-30T03:18:45.161Z,99.99
2018-08-30T03:19:45.111Z,99.99
2018-08-30T03:21:38.413Z,99.99
2018-08-30T03:22:38.376Z,99.99
2018-08-30T03:24:31.714Z,99.99
2018-08-30T03:25:31.668Z,99.99
2018-08-30T03:27:24.962Z,99.99
2018-08-30T03:28:24.936Z,99.99
2018-08-30T03:30:18.361Z,99.99
2018-08-30T03:31:18.213Z,99.99
2018-08-30T03:33:11.533Z,99.99
2018-08-30T03:34:11.506Z,99.99
2018-08-30T03:36:04.846Z,99.99
2018-08-30T03:37:04.789Z,99.99
2018-08-30T03:38:58.110Z,99.99
2018-08-30T03:39:58.071Z,99.99
2018-08-30T03:41:51.374Z,99.99
2018-08-30T03:42:51.334Z,99.99
2018-08-30T03:44:44.652Z,99.99
2018-08-30T03:45:44.607Z,99.99
2018-08-30T03:47:37.917Z,99.99
2018-08-30T03:48:37.878Z,99.99
2018-08-30T03:50:31.208Z,99.99
2018-08-30T03:51:31.158Z,99.99
2018-08-30T03:53:24.446Z,99.99
2018-08-30T03:54:24.414Z,99.99
2018-08-30T03:56:17.737Z,99.99
2018-08-30T03:57:17.687Z,99.99
2018-08-30T03:59:10.993Z,99.99
2018-08-30T04:00:10.975Z,99.99
2018-08-30T04:02:04.295Z,99.99
2018-08-30T04:03:04.243Z,99.99
2018-08-30T04:04:57.553Z,99.99
2018-08-30T04:05:57.509Z,99.99
2018-08-30T04:07:50.813Z,99.99
2018-08-30T04:08:50.789Z,99.99
2018-08-30T04:10:44.107Z,99.99
2018-08-30T04:11:44.053Z,99.99
2018-08-30T04:13:37.431Z,99.99
2018-08-30T04:14:37.316Z,99.99
2018-08-30T04:16:30.645Z,99.99
2018-08-30T04:17:30.593Z,99.99
2018-08-30T04:19:23.908Z,99.99
2018-08-30T04:20:23.867Z,99.99
2018-08-30T04:22:17.181Z,99.99
2018-08-30T04:23:17.135Z,99.99
2018-08-30T04:25:10.444Z,99.99
2018-08-30T04:26:10.411Z,99.99
2018-08-30T04:28:03.739Z,99.99
2018-08-30T04:29:03.685Z,99.99
2018-08-30T04:30:57.036Z,99.99
2018-08-30T04:31:56.986Z,99.99
2018-08-30T04:33:49.794Z,99.99
2018-08-30T04:34:49.749Z,99.99
2018-08-30T04:36:42.575Z,99.99
2018-08-30T04:37:42.553Z,99.99
2018-08-30T04:39:35.829Z,99.99
2018-08-30T04:40:35.799Z,99.99
2018-08-30T04:42:29.298Z,99.99
2018-08-30T04:43:29.070Z,99.99
2018-08-30T04:45:22.390Z,99.99
2018-08-30T04:46:22.344Z,99.99
2018-08-30T04:48:15.666Z,99.99
2018-08-30T04:49:15.616Z,99.99
2018-08-30T04:51:08.919Z,99.99
2018-08-30T04:52:08.886Z,99.99
2018-08-30T04:54:02.204Z,99.99
2018-08-30T04:55:02.156Z,99.99
2018-08-30T04:56:55.489Z,99.99
2018-08-30T04:57:55.446Z,99.99
2018-08-30T04:59:48.760Z,99.99
2018-08-30T05:00:48.720Z,99.99
2018-08-30T05:02:42.020Z,99.99
2018-08-30T05:03:41.980Z,99.99
2018-08-30T05:05:35.281Z,99.99
2018-08-30T05:06:35.258Z,99.99
2018-08-30T05:08:28.574Z,99.99
2018-08-30T05:09:28.521Z,99.99
2018-08-30T05:11:21.840Z,99.99
2018-08-30T05:12:21.806Z,99.99
2018-08-30T05:14:15.135Z,99.99
2018-08-30T05:15:15.081Z,99.99
2018-08-30T05:17:08.382Z,99.99
2018-08-30T05:18:08.353Z,99.99
2018-08-30T05:20:01.674Z,99.99
2018-08-30T05:21:01.629Z,99.99
2018-08-30T05:22:55.034Z,99.99
2018-08-30T05:23:54.919Z,99.99
2018-08-30T05:25:48.250Z,99.99
2018-08-30T05:26:48.198Z,99.99
2018-08-30T05:28:41.522Z,99.99
2018-08-30T05:29:41.497Z,99.99
2018-08-30T05:31:34.803Z,99.99
2018-08-30T05:32:34.763Z,99.99
2018-08-30T05:34:28.082Z,99.99
2018-08-30T05:35:28.055Z,99.99
2018-08-30T05:37:21.333Z,99.99
2018-08-30T05:38:21.299Z,99.99
2018-08-30T05:40:14.614Z,99.99
2018-08-30T05:41:14.574Z,99.99
2018-08-30T05:43:07.887Z,99.99
2018-08-30T05:44:07.839Z,99.99
2018-08-30T05:46:01.179Z,99.99
2018-08-30T05:47:01.119Z,99.99
2018-08-30T05:48:54.434Z,99.99
2018-08-30T05:49:54.419Z,99.99
2018-08-30T05:51:47.745Z,99.99
2018-08-30T05:52:47.697Z,99.99
2018-08-30T05:54:41.032Z,99.99
2018-08-30T05:55:40.968Z,99.99
2018-08-30T05:57:34.354Z,99.99
2018-08-30T05:58:34.310Z,99.99
2018-08-30T06:00:27.628Z,99.99
2018-08-30T06:01:27.578Z,99.99
2018-08-30T06:03:20.879Z,99.99
2018-08-30T06:04:20.842Z,99.99
2018-08-30T06:06:14.170Z,99.99
2018-08-30T06:07:14.125Z,99.99
2018-08-30T06:09:06.928Z,99.99
2018-08-30T06:10:06.897Z,99.99
2018-08-30T06:12:00.212Z,99.99
2018-08-30T06:13:00.226Z,99.99
2018-08-30T06:14:53.003Z,99.99
2018-08-30T06:15:52.962Z,99.99
2018-08-30T06:17:46.288Z,99.99
2018-08-30T06:18:46.243Z,99.99
2018-08-30T06:20:39.559Z,99.99
2018-08-30T06:21:39.503Z,99.99
2018-08-30T06:23:32.808Z,99.99
2018-08-30T06:24:32.793Z,99.99
2018-08-30T06:26:26.088Z,99.99
2018-08-30T06:27:26.054Z,99.99
2018-08-30T06:29:19.359Z,99.99
2018-08-30T06:30:19.319Z,99.99
2018-08-30T06:32:12.637Z,99.99
2018-08-30T06:33:12.590Z,99.99
2018-08-30T06:35:05.903Z,99.99
2018-08-30T06:36:05.870Z,99.99
2018-08-30T06:37:58.678Z,99.99
2018-08-30T06:38:58.640Z,99.99
2018-08-30T06:40:51.957Z,99.99
2018-08-30T06:41:51.925Z,99.99
2018-08-30T06:43:45.248Z,99.99
2018-08-30T06:44:45.215Z,99.99
2018-08-30T06:46:38.500Z,99.99
2018-08-30T06:47:38.470Z,99.99
2018-08-30T06:49:31.794Z,99.99
2018-08-30T06:50:31.749Z,99.99
2018-08-30T06:52:25.041Z,99.99
2018-08-30T06:53:25.013Z,99.99
2018-08-30T06:55:18.334Z,99.99
2018-08-30T06:56:18.347Z,99.99
2018-08-30T06:58:11.121Z,99.99
2018-08-30T06:59:11.066Z,99.99
2018-08-30T07:01:04.379Z,99.99
2018-08-30T07:02:04.357Z,99.99
2018-08-30T07:03:57.676Z,99.99
2018-08-30T07:04:57.624Z,99.99
2018-08-30T07:06:50.931Z,99.99
2018-08-30T07:07:50.894Z,99.99
2018-08-30T07:09:44.221Z,99.99
2018-08-30T07:10:44.205Z,99.99
2018-08-30T07:12:37.476Z,99.99
2018-08-30T07:13:37.439Z,99.99
2018-08-30T07:15:30.776Z,99.99
2018-08-30T07:16:30.726Z,99.99
2018-08-30T07:18:24.039Z,99.99
2018-08-30T07:19:24.016Z,99.99
2018-08-30T07:21:17.327Z,99.99
2018-08-30T07:22:17.281Z,99.99
2018-08-30T07:24:10.622Z,99.99
2018-08-30T07:25:10.555Z,99.99
2018-08-30T07:27:03.860Z,99.99
2018-08-30T07:28:03.827Z,99.99
2018-08-30T07:29:57.156Z,99.99
2018-08-30T07:30:57.112Z,99.99
2018-08-30T07:32:50.413Z,99.49
2018-08-30T07:33:50.376Z,99.10
2018-08-30T07:35:43.712Z,98.24
2018-08-30T07:36:43.657Z,98.33
2018-08-30T07:38:36.990Z,99.10
2018-08-30T07:39:36.956Z,99.01
2018-08-30T07:41:30.272Z,97.33
2018-08-30T07:42:30.222Z,96.94
2018-08-30T07:44:23.720Z,96.03
2018-08-30T07:45:23.498Z,95.46
2018-08-30T07:47:16.896Z,95.55
2018-08-30T07:48:16.771Z,95.94
2018-08-30T07:50:10.113Z,95.84
2018-08-30T07:51:10.052Z,95.84
2018-08-30T07:53:03.372Z,95.65
2018-08-30T07:54:03.336Z,96.03
2018-08-30T07:55:56.659Z,95.84
2018-08-30T07:56:56.628Z,96.13
2018-08-30T07:58:49.912Z,96.42
2018-08-30T07:59:49.945Z,96.51
2018-08-30T08:01:43.203Z,95.60
2018-08-30T08:02:43.157Z,96.22
2018-08-30T08:04:36.468Z,95.50
2018-08-30T08:05:36.432Z,95.31
2018-08-30T08:07:29.770Z,93.97
2018-08-30T08:08:29.723Z,93.39
2018-08-30T08:10:22.527Z,93.39
2018-08-30T08:11:22.498Z,92.91
2018-08-30T08:13:15.817Z,92.63
2018-08-30T08:14:15.777Z,92.05
2018-08-30T08:16:08.597Z,91.86
2018-08-30T08:17:08.549Z,91.96
2018-08-30T08:19:01.901Z,90.90
2018-08-30T08:20:01.828Z,91.57
2018-08-30T08:21:55.138Z,91.42
2018-08-30T08:22:55.107Z,91.61
2018-08-30T08:24:48.552Z,91.13
2018-08-30T08:25:48.379Z,90.37
2018-08-30T08:27:41.703Z,90.37
2018-08-30T08:28:41.649Z,90.94
2018-08-30T08:30:34.954Z,90.46
2018-08-30T08:31:34.924Z,90.51
2018-08-30T08:33:28.243Z,89.64
2018-08-30T08:34:28.195Z,90.12
2018-08-30T08:36:21.509Z,87.01
2018-08-30T08:37:21.479Z,87.01
2018-08-30T08:39:14.794Z,86.91
2018-08-30T08:40:14.785Z,87.39
2018-08-30T08:42:07.578Z,88.45
2018-08-30T08:43:07.528Z,88.54
2018-08-30T08:45:00.828Z,88.20
2018-08-30T08:46:00.798Z,88.39
2018-08-30T08:47:54.170Z,87.92
2018-08-30T08:48:54.085Z,87.34
2018-08-30T08:50:47.408Z,86.28
2018-08-30T08:51:47.374Z,85.99
2018-08-30T08:53:40.739Z,85.51
2018-08-30T08:54:40.653Z,86.47
2018-08-30T08:56:33.462Z,86.47
2018-08-30T08:57:33.435Z,86.76
2018-08-30T08:59:26.754Z,87.53
2018-08-30T09:00:26.715Z,86.57
2018-08-30T09:02:20.056Z,84.60
2018-08-30T09:03:19.995Z,84.89
2018-08-30T09:05:13.309Z,85.18
2018-08-30T09:06:13.270Z,85.47
2018-08-30T09:08:06.109Z,85.75
2018-08-30T09:09:06.050Z,85.85
2018-08-30T09:10:58.869Z,86.47
2018-08-30T09:11:58.835Z,85.41
2018-08-30T09:13:52.164Z,85.80
2018-08-30T09:14:52.108Z,84.74
2018-08-30T09:16:44.925Z,83.69
2018-08-30T09:17:44.890Z,83.97
2018-08-30T09:19:38.236Z,82.82
2018-08-30T09:20:38.170Z,83.30
2018-08-30T09:22:31.476Z,84.07
2018-08-30T09:23:31.444Z,84.36
2018-08-30T09:25:24.763Z,82.67
2018-08-30T09:26:24.721Z,82.29
2018-08-30T09:28:17.534Z,80.27
2018-08-30T09:29:17.506Z,79.30
2018-08-30T09:31:10.332Z,79.11
2018-08-30T09:32:10.279Z,79.02
2018-08-30T09:34:03.606Z,78.63
2018-08-30T09:35:03.557Z,78.34
2018-08-30T09:36:56.922Z,79.25
2018-08-30T09:37:56.906Z,79.53
2018-08-30T09:39:50.226Z,76.36
2018-08-30T09:40:50.175Z,74.60
2018-08-30T09:42:43.500Z,76.04
2018-08-30T09:43:43.472Z,75.21
2018-08-30T09:45:36.786Z,73.86
2018-08-30T09:46:36.736Z,74.05
2018-08-30T09:48:30.060Z,74.34
2018-08-30T09:49:30.118Z,74.92
2018-08-30T09:51:23.345Z,73.77
2018-08-30T09:52:23.307Z,73.67
2018-08-30T09:54:16.646Z,73.22
2018-08-30T09:55:16.576Z,72.74
2018-08-30T09:57:10.006Z,71.30
2018-08-30T09:58:09.855Z,72.32
2018-08-30T10:00:03.185Z,71.49
2018-08-30T10:01:03.132Z,69.28
2018-08-30T10:02:55.952Z,68.32
2018-08-30T10:03:55.984Z,66.91
2018-08-30T10:05:48.747Z,66.78
2018-08-30T10:06:48.702Z,64.69
2018-08-30T10:08:42.015Z,62.31
2018-08-30T10:09:41.997Z,61.13
2018-08-30T10:11:35.671Z,62.41
2018-08-30T10:12:35.268Z,61.90
2018-08-30T10:14:28.619Z,61.74
2018-08-30T10:15:28.561Z,61.90
2018-08-30T10:17:21.870Z,63.24
2018-08-30T10:18:21.843Z,62.38
2018-08-30T10:20:14.673Z,62.25
2018-08-30T10:21:14.633Z,60.83
2018-08-30T10:23:07.969Z,59.52
2018-08-30T10:24:07.915Z,57.39
2018-08-30T10:26:01.245Z,55.88
2018-08-30T10:27:01.199Z,55.42
2018-08-30T10:28:54.039Z,53.01
2018-08-30T10:29:53.992Z,52.36
2018-08-30T10:31:47.327Z,51.03
2018-08-30T10:32:47.292Z,51.81
2018-08-30T10:34:40.604Z,51.61
2018-08-30T10:35:40.581Z,52.00
2018-08-30T10:37:33.938Z,51.32
2018-08-30T10:38:33.876Z,50.69
2018-08-30T10:40:27.188Z,53.30
2018-08-30T10:41:27.152Z,53.75
2018-08-30T10:43:20.489Z,54.14
2018-08-30T10:44:20.446Z,53.75
2018-08-30T10:46:13.782Z,53.63
2018-08-30T10:47:13.737Z,54.31
2018-08-30T10:49:07.052Z,54.86
2018-08-30T10:50:07.024Z,55.08
2018-08-30T10:52:00.359Z,55.49
2018-08-30T10:53:00.323Z,54.72
2018-08-30T10:54:53.647Z,52.53
2018-08-30T10:55:53.614Z,51.75
2018-08-30T10:57:46.947Z,51.20
2018-08-30T10:58:46.900Z,50.52
2018-08-30T11:00:40.234Z,50.50
2018-08-30T11:01:40.204Z,47.86
2018-08-30T11:03:33.524Z,47.02
2018-08-30T11:04:33.480Z,45.66
2018-08-30T11:06:26.813Z,46.42
2018-08-30T11:07:26.785Z,48.16
2018-08-30T11:09:20.140Z,47.00
2018-08-30T11:10:20.069Z,46.94
2018-08-30T11:12:13.413Z,45.10
2018-08-30T11:13:13.361Z,44.64
2018-08-30T11:15:06.680Z,44.86
2018-08-30T11:16:06.668Z,44.10
2018-08-30T11:18:00.009Z,43.23
2018-08-30T11:18:59.971Z,43.91
2018-08-30T11:20:53.290Z,40.33
2018-08-30T11:21:53.265Z,41.51
2018-08-30T11:23:46.607Z,41.49
2018-08-30T11:24:46.581Z,41.30
2018-08-30T11:26:39.892Z,40.61
2018-08-30T11:27:39.871Z,40.33
2018-08-30T11:29:33.200Z,41.02
2018-08-30T11:30:33.157Z,40.01
2018-08-30T11:32:26.491Z,40.61
2018-08-30T11:33:26.459Z,39.84
2018-08-30T11:35:19.780Z,39.37
2018-08-30T11:36:19.744Z,39.74
2018-08-30T11:38:12.592Z,40.31
2018-08-30T11:39:12.544Z,40.61
2018-08-30T11:41:05.883Z,40.58
2018-08-30T11:42:05.846Z,41.83
2018-08-30T11:43:59.184Z,42.07
2018-08-30T11:44:59.157Z,41.68
2018-08-30T11:46:52.507Z,41.97
2018-08-30T11:47:52.455Z,40.33
2018-08-30T11:49:45.781Z,39.36
2018-08-30T11:50:45.747Z,39.08
2018-08-30T11:52:39.136Z,39.94
2018-08-30T11:53:39.042Z,39.55
2018-08-30T11:55:32.384Z,39.16
2018-08-30T11:56:32.342Z,39.45
2018-08-30T11:58:25.672Z,39.26
2018-08-30T11:59:25.654Z,39.55
2018-08-30T12:01:18.961Z,38.68
2018-08-30T12:02:18.940Z,38.29
2018-08-30T12:04:12.432Z,38.99
2018-08-30T12:05:12.262Z,38.29
2018-08-30T12:07:05.603Z,38.21
2018-08-30T12:08:05.616Z,37.53
2018-08-30T12:09:58.881Z,37.03
2018-08-30T12:10:58.958Z,37.23
2018-08-30T12:12:52.162Z,37.34
2018-08-30T12:13:52.142Z,36.91
2018-08-30T12:15:45.493Z,37.21
2018-08-30T12:16:45.440Z,37.59
2018-08-30T12:18:38.815Z,38.21
2018-08-30T12:19:38.776Z,37.65
2018-08-30T12:21:32.086Z,37.08
2018-08-30T12:22:32.073Z,37.08
2018-08-30T12:24:26.393Z,35.71
2018-08-30T12:25:26.341Z,35.67
2018-08-30T12:27:20.682Z,36.18
2018-08-30T12:28:20.664Z,36.19
2018-08-30T12:30:14.994Z,35.51
2018-08-30T12:31:14.946Z,35.80
2018-08-30T12:33:08.269Z,35.53
2018-08-30T12:34:08.333Z,34.44
2018-08-30T12:36:01.705Z,35.59
2018-08-30T12:37:01.542Z,35.78
2018-08-30T12:38:54.864Z,35.78
2018-08-30T12:39:54.984Z,35.59
2018-08-30T12:41:48.228Z,35.86
2018-08-30T12:42:48.221Z,35.57
2018-08-30T12:44:41.564Z,36.08
2018-08-30T12:45:41.478Z,35.69
2018-08-30T12:47:34.769Z,35.77
2018-08-30T12:48:34.762Z,35.66
2018-08-30T12:50:28.211Z,38.00
2018-08-30T12:51:28.300Z,37.23
2018-08-30T12:53:22.472Z,37.51
2018-08-30T12:54:22.439Z,37.51
2018-08-30T12:56:15.786Z,37.09
2018-08-30T12:57:15.748Z,37.94
2018-08-30T12:59:08.962Z,39.03
2018-08-30T13:00:09.129Z,38.93
2018-08-30T13:02:02.502Z,37.01
2018-08-30T13:03:02.410Z,38.06
2018-08-30T13:04:55.752Z,37.79
2018-08-30T13:05:55.783Z,37.13
2018-08-30T13:07:49.062Z,36.52
2018-08-30T13:08:49.076Z,35.54
2018-08-30T13:10:42.371Z,35.93
2018-08-30T13:11:42.435Z,36.43
2018-08-30T13:13:35.694Z,36.12
2018-08-30T13:14:35.717Z,37.09
2018-08-30T13:16:29.064Z,35.62
2018-08-30T13:17:28.941Z,36.24
2018-08-30T13:19:22.453Z,35.85
2018-08-30T13:20:22.292Z,36.14
2018-08-30T13:22:15.621Z,36.93
2018-08-30T13:23:15.460Z,36.16
2018-08-30T13:25:09.064Z,37.05
2018-08-30T13:26:08.992Z,37.07
2018-08-30T13:28:02.348Z,35.98
2018-08-30T13:29:02.263Z,36.06
2018-08-30T13:30:55.587Z,36.93
2018-08-30T13:31:55.543Z,36.82
2018-08-30T13:33:49.143Z,37.61
2018-08-30T13:34:49.021Z,35.75
2018-08-30T13:36:42.367Z,35.73
2018-08-30T13:37:42.199Z,35.64
2018-08-30T13:39:35.807Z,35.46
2018-08-30T13:40:35.676Z,35.56
2018-08-30T13:42:28.870Z,34.31
2018-08-30T13:43:28.734Z,34.51
2018-08-30T13:45:22.244Z,34.31
2018-08-30T13:46:21.929Z,35.48
2018-08-30T13:48:15.327Z,35.30
2018-08-30T13:49:15.302Z,34.81
2018-08-30T13:51:08.787Z,33.56
2018-08-30T13:52:08.742Z,34.12
2018-08-30T13:54:02.055Z,34.59
2018-08-30T13:55:02.438Z,34.49
2018-08-30T13:56:55.414Z,35.36
2018-08-30T13:57:55.404Z,35.27
2018-08-30T13:59:48.860Z,34.78
2018-08-30T14:00:49.010Z,35.57
2018-08-30T14:02:41.834Z,34.49
2018-08-30T14:03:41.882Z,34.57
2018-08-30T14:05:35.322Z,35.73
2018-08-30T14:06:35.185Z,35.35
2018-08-30T14:08:28.463Z,35.89
2018-08-30T14:09:28.407Z,36.20
2018-08-30T14:11:21.764Z,36.88
2018-08-30T14:12:21.727Z,36.90
2018-08-30T14:14:15.041Z,37.05
2018-08-30T14:15:15.205Z,36.96
2018-08-30T14:17:08.159Z,36.88
2018-08-30T14:18:08.095Z,36.86
2018-08-30T14:20:01.319Z,37.32
2018-08-30T14:21:01.439Z,38.00
2018-08-30T14:22:54.609Z,37.48
2018-08-30T14:23:54.588Z,38.83
2018-08-30T14:25:47.935Z,38.74
2018-08-30T14:26:47.983Z,39.80
2018-08-30T14:28:41.197Z,39.62
2018-08-30T14:29:41.214Z,39.61
2018-08-30T14:31:34.553Z,39.43
2018-08-30T14:32:34.517Z,38.85
2018-08-30T14:34:27.875Z,38.68
2018-08-30T14:35:27.747Z,38.10
2018-08-30T14:37:21.083Z,37.30
2018-08-30T14:38:21.037Z,37.52
2018-08-30T14:40:14.453Z,37.34
2018-08-30T14:41:14.512Z,36.76
2018-08-30T14:43:07.672Z,35.49
2018-08-30T14:44:07.624Z,36.16
2018-08-30T14:46:00.963Z,36.76
2018-08-30T14:47:00.998Z,36.76
2018-08-30T14:48:54.238Z,36.65
2018-08-30T14:49:54.207Z,36.74
2018-08-30T14:51:47.546Z,37.15
2018-08-30T14:52:47.556Z,36.88
2018-08-30T14:54:40.911Z,35.83
2018-08-30T14:55:40.918Z,35.54
2018-08-30T14:57:34.161Z,36.30
2018-08-30T14:58:34.094Z,35.91
2018-08-30T15:00:27.434Z,37.05
2018-08-30T15:01:27.397Z,37.36
2018-08-30T15:03:20.732Z,36.02
2018-08-30T15:04:20.684Z,35.93
2018-08-30T15:06:14.040Z,36.02
2018-08-30T15:07:13.977Z,35.56
2018-08-30T15:09:07.290Z,35.64
2018-08-30T15:10:07.290Z,35.54
2018-08-30T15:12:00.765Z,36.74
2018-08-30T15:13:00.563Z,37.90
2018-08-30T15:14:53.890Z,38.10
2018-08-30T15:15:53.869Z,38.39
2018-08-30T15:17:47.198Z,37.92
2018-08-30T15:18:47.149Z,37.92
2018-08-30T15:20:40.470Z,35.81
2018-08-30T15:21:40.452Z,35.72
2018-08-30T15:23:34.114Z,35.99
2018-08-30T15:24:33.747Z,36.08
2018-08-30T15:26:27.048Z,35.50
2018-08-30T15:27:27.020Z,35.70
2018-08-30T15:29:20.437Z,36.18
2018-08-30T15:30:20.311Z,35.70
2018-08-30T15:32:13.630Z,36.38
2018-08-30T15:33:13.590Z,35.70
2018-08-30T15:35:07.029Z,37.04
2018-08-30T15:36:06.921Z,37.54
2018-08-30T15:38:00.237Z,37.34
2018-08-30T15:39:00.186Z,38.58
2018-08-30T15:40:53.599Z,40.11
2018-08-30T15:41:53.554Z,40.01
2018-08-30T15:43:46.808Z,40.20
2018-08-30T15:44:46.769Z,39.94
2018-08-30T15:46:40.090Z,40.32
2018-08-30T15:47:40.041Z,40.03
2018-08-30T15:49:33.380Z,40.11
2018-08-30T15:50:33.336Z,40.20
2018-08-30T15:52:26.655Z,40.38
2018-08-30T15:53:26.726Z,40.28
2018-08-30T15:55:19.971Z,40.45
2018-08-30T15:56:19.924Z,40.84
2018-08-30T15:58:13.255Z,41.23
2018-08-30T15:59:13.304Z,41.42
2018-08-30T16:01:06.536Z,41.40
2018-08-30T16:02:06.504Z,41.78
2018-08-30T16:03:59.895Z,42.08
2018-08-30T16:04:59.796Z,42.08
2018-08-30T16:06:53.259Z,41.81
2018-08-30T16:07:53.235Z,41.61
2018-08-30T16:09:46.540Z,41.78
2018-08-30T16:10:46.499Z,42.94
2018-08-30T16:12:39.819Z,42.85
2018-08-30T16:13:39.779Z,42.27
2018-08-30T16:15:33.275Z,41.57
2018-08-30T16:16:33.079Z,41.48
2018-08-30T16:18:26.537Z,41.57
2018-08-30T16:19:26.350Z,41.48
2018-08-30T16:21:19.691Z,41.57
2018-08-30T16:22:19.647Z,41.57
2018-08-30T16:24:13.036Z,41.36
2018-08-30T16:25:12.931Z,41.65
2018-08-30T16:27:06.276Z,41.55
2018-08-30T16:28:06.220Z,41.36
2018-08-30T16:29:59.566Z,41.36
2018-08-30T16:30:59.518Z,41.65
2018-08-30T16:32:52.805Z,42.90
2018-08-30T16:33:52.787Z,42.23
2018-08-30T16:35:46.105Z,42.79
2018-08-30T16:36:46.067Z,43.37
2018-08-30T16:38:39.400Z,43.10
2018-08-30T16:39:39.404Z,42.52
2018-08-30T16:41:32.673Z,42.90
2018-08-30T16:42:32.630Z,42.73
2018-08-30T16:44:25.987Z,42.54
2018-08-30T16:45:25.912Z,41.96
2018-08-30T16:47:19.272Z,41.48
2018-08-30T16:48:19.198Z,41.57
2018-08-30T16:50:12.518Z,41.77
2018-08-30T16:51:12.476Z,41.67
2018-08-30T16:53:05.823Z,41.57
2018-08-30T16:54:05.773Z,41.67
2018-08-30T16:55:59.185Z,40.70
2018-08-30T16:56:59.076Z,41.67
2018-08-30T16:58:52.416Z,41.69
2018-08-30T16:59:52.366Z,41.48
2018-08-30T17:01:45.678Z,42.18
2018-08-30T17:02:45.641Z,41.67
2018-08-30T17:04:38.969Z,41.57
2018-08-30T17:05:38.925Z,43.02
2018-08-30T17:07:32.262Z,42.83
2018-08-30T17:08:32.301Z,41.96
2018-08-30T17:10:25.564Z,41.48
2018-08-30T17:11:25.501Z,41.17
2018-08-30T17:13:18.839Z,42.42
2018-08-30T17:14:18.782Z,42.23
2018-08-30T17:16:12.107Z,42.71
2018-08-30T17:17:12.185Z,42.03
2018-08-30T17:19:05.408Z,42.80
2018-08-30T17:20:05.359Z,42.80
2018-08-30T17:21:58.698Z,42.79
2018-08-30T17:22:58.644Z,42.97
2018-08-30T17:24:52.077Z,43.85
2018-08-30T17:25:51.970Z,43.27
2018-08-30T17:27:45.308Z,44.02
2018-08-30T17:28:45.243Z,44.81
2018-08-30T17:30:38.554Z,44.49
2018-08-30T17:31:38.513Z,45.29
2018-08-30T17:33:32.827Z,44.40
2018-08-30T17:34:32.814Z,44.59
2018-08-30T17:36:26.132Z,44.59
2018-08-30T17:37:26.095Z,45.56
2018-08-30T17:39:19.414Z,45.17
2018-08-30T17:40:19.372Z,45.27
2018-08-30T17:42:12.724Z,45.53
2018-08-30T17:43:12.659Z,45.83
2018-08-30T17:45:05.990Z,46.14
2018-08-30T17:46:05.935Z,45.73
2018-08-30T17:47:59.263Z,46.01
2018-08-30T17:48:59.227Z,46.11
2018-08-30T17:50:52.539Z,46.40
2018-08-30T17:51:52.490Z,46.31
2018-08-30T17:53:45.814Z,46.69
2018-08-30T17:54:45.789Z,47.36
2018-08-30T17:56:39.111Z,47.85
2018-08-30T17:57:39.080Z,47.75
2018-08-30T17:59:32.379Z,47.72
2018-08-30T18:00:32.360Z,47.63
2018-08-30T18:02:25.701Z,47.44
2018-08-30T18:03:25.639Z,47.34
2018-08-30T18:05:19.114Z,47.82
2018-08-30T18:06:18.926Z,48.59
2018-08-30T18:08:12.249Z,48.49
2018-08-30T18:09:12.209Z,48.21
2018-08-30T18:11:05.524Z,48.11
2018-08-30T18:12:05.486Z,48.69
2018-08-30T18:13:58.796Z,48.28
2018-08-30T18:14:58.760Z,48.38
2018-08-30T18:16:52.105Z,48.95
2018-08-30T18:17:52.093Z,48.76
2018-08-30T18:19:45.371Z,49.91
2018-08-30T18:20:45.339Z,49.53
2018-08-30T18:22:38.670Z,50.01
2018-08-30T18:23:38.619Z,49.91
2018-08-30T18:25:31.950Z,49.91
2018-08-30T18:26:31.898Z,50.66
2018-08-30T18:28:25.232Z,50.76
2018-08-30T18:29:25.170Z,50.85
2018-08-30T18:31:18.542Z,51.43
2018-08-30T18:32:18.449Z,51.53
2018-08-30T18:34:11.751Z,51.62
2018-08-30T18:35:11.804Z,51.33